Time;durP1;ratioP1;P1;durP2;ratioP2;P2;SDS_P1;SDS_P2;PMS_P1;PMS_P2;Temp;Humidity;BMP_temperature;BMP_pressure;BME280_temperature;BME280_humidity;BME280_pressure;Samples;Min_cycle;Max_cycle;Signal;HPM_P1;HPM_P2
2024/04/01 00:03:46;;;;;;;33.40;6.30;;;;;;;10.84;65.17;98603.02;123161;1286;5582121;-63
2024/04/01 00:07:27;;;;;;;;;;;;;;;10.77;65.41;98612.50;125683;1311;114994;-62
2024/04/01 00:11:29;;;;;;;28.10;5.40;;;;;;;10.69;65.53;98612.77;125632;1311;115017;-63
2024/04/01 00:15:21;;;;;;;;;;;;;;;;;;;;;
2024/04/01 00:23:32;;;;;;;28.80;5.10;;;;;;;10.46;65.92;98617.90;126071;1308;638640;-64
2024/04/01 00:27:28;;;;;;;28.90;5.80;;;;;;;10.39;66.52;98610.95;128605;1283;128505;-64
2024/04/01 00:31:28;;;;;;;;;;;;;;;;;;;;;
2024/04/01 00:48:08;;;;;;;26.20;6.10;;;;;;;10.21;67.35;98619.23;125913;1298;638560;-65
2024/04/01 00:52:13;;;;;;;27.10;5.10;;;;;;;10.16;67.61;98617.29;128431;1279;129033;-65
2024/04/01 01:00:10;;;;;;;31.90;5.00;;;;;;;10.11;67.72;98616.39;123246;1289;5478244;-63
2024/04/01 01:03:59;;;;;;;26.70;5.00;;;;;;;10.08;67.86;98609.88;126377;1297;115114;-63
2024/04/01 01:08:04;;;;;;;26.40;4.60;;;;;;;10.05;67.84;98603.46;125874;1297;114886;-64
2024/04/01 01:16:38;;;;;;;24.40;4.60;;;;;;;9.97;67.97;98581.77;125682;1305;638832;-64
2024/04/01 01:20:40;;;;;;;25.10;4.40;;;;;;;9.93;68.56;98584.77;128328;1279;129813;-63
2024/04/01 01:24:44;;;;;;;25.80;4.60;;;;;;;9.92;68.46;98583.09;127275;1305;114795;-64
2024/04/01 01:37:19;;;;;;;23.30;4.20;;;;;;;9.94;69.07;98564.89;128249;1298;128112;-64
2024/04/01 01:41:23;;;;;;;24.20;3.50;;;;;;;9.95;69.13;98554.24;126358;1288;114953;-63
2024/04/01 01:45:24;;;;;;;22.70;4.30;;;;;;;9.97;69.13;98541.80;122520;1290;5600507;-63
2024/04/01 01:53:16;;;;;;;20.40;4.20;;;;;;;10.00;69.23;98522.02;125819;1311;114974;-62
2024/04/01 02:01:28;;;;;;;15.60;3.60;;;;;;;9.93;69.21;98511.96;125405;1315;638726;-64
2024/04/01 02:05:31;;;;;;;23.60;4.10;;;;;;;9.88;69.79;98514.85;128562;1283;128716;-64
2024/04/01 02:09:34;;;;;;;25.00;4.10;;;;;;;9.92;70.06;98522.43;127442;1303;114896;-64
2024/04/01 02:13:35;;;;;;;26.70;3.90;;;;;;;9.93;70.06;98526.27;122693;1297;5420289;-65
2024/04/01 02:17:36;;;;;;;10.30;2.20;;;;;;;9.93;70.27;98527.83;124712;1311;114892;-63
2024/04/01 02:26:04;;;;;;;20.20;2.70;;;;;;;10.02;70.42;98525.41;125548;1311;638841;-64
2024/04/01 02:30:06;;;;;;;26.00;4.60;;;;;;;10.00;70.63;98520.86;128528;1275;128321;-64
2024/04/01 02:34:08;;;;;;;21.60;3.70;;;;;;;10.01;70.52;98517.48;128194;1280;114950;-63
2024/04/01 02:37:52;;;;;;;25.10;3.90;;;;;;;10.00;70.61;98513.10;123400;1296;5412363;-63
2024/04/01 02:41:41;;;;;;;23.10;3.00;;;;;;;9.99;70.53;98513.70;127480;1302;114872;-63
2024/04/01 02:45:33;;;;;;;23.20;4.10;;;;;;;9.98;70.59;98514.47;127253;1286;114898;-64
2024/04/01 02:49:24;;;;;;;20.70;4.10;;;;;;;9.96;70.60;98514.27;126271;1308;115160;-63
2024/04/01 02:53:07;;;;;;;;;;;;;;;9.91;70.35;98510.36;126026;1302;129847;-63
2024/04/01 03:05:11;;;;;;;22.70;4.60;;;;;;;9.68;70.65;98481.27;126347;1297;636054;-65
2024/04/01 03:09:14;;;;;;;18.40;4.20;;;;;;;9.58;70.74;98477.18;127301;1303;128742;-64
2024/04/01 03:13:06;;;;;;;18.40;3.30;;;;;;;9.48;70.89;98471.14;126949;1288;114940;-63
2024/04/01 03:17:02;;;;;;;22.10;3.90;;;;;;;9.44;71.35;98467.52;126726;1289;115319;-64
2024/04/01 03:21:08;;;;;;;17.20;3.00;;;;;;;9.41;71.80;98471.80;122918;1293;114956;-63
2024/04/01 03:25:08;;;;;;;25.40;3.10;;;;;;;9.32;71.69;98471.95;125786;1317;115068;-64
2024/04/01 03:28:52;;;;;;;22.40;4.70;;;;;;;9.24;71.69;98477.85;125317;1322;114962;-63
2024/04/01 03:32:51;;;;;;;;;;;;;;;;;;;;;
2024/04/01 03:37:09;;;;;;;;;;;;;;;;;;;;;
2024/04/01 03:41:13;;;;;;;17.00;3.90;;;;;;;9.16;72.38;98484.75;128159;1279;128028;-63
2024/04/01 03:53:10;;;;;;;20.60;3.40;;;;;;;9.23;73.54;98494.71;126025;1296;114969;-63
2024/04/01 03:57:06;;;;;;;14.00;2.60;;;;;;;9.30;73.55;98489.01;125627;1296;115163;-63
2024/04/01 04:00:47;;;;;;;;;;;;;;;;;;;;;
2024/04/01 04:04:20;;;;;;;22.30;3.10;;;;;;;9.48;73.67;98498.02;124813;1324;115105;-64
2024/04/01 04:12:47;;;;;;;;;;;;;;;;;;;;;
2024/04/01 04:16:51;;;;;;;19.90;2.40;;;;;;;9.76;73.49;98499.71;127658;1284;128874;-64
2024/04/01 04:20:54;;;;;;;12.00;2.00;;;;;;;9.86;73.55;98512.86;125818;1317;114975;-64
2024/04/01 04:24:54;;;;;;;12.70;1.80;;;;;;;10.01;73.66;98511.34;120885;1311;5418338;-64
2024/04/01 04:33:03;;;;;;;13.80;1.90;;;;;;;10.36;73.60;98467.46;126065;1297;636144;-64
2024/04/01 04:37:06;;;;;;;12.60;2.70;;;;;;;10.57;73.30;98477.45;128062;1298;128896;-63
2024/04/01 04:40:42;;;;;;;;;;;;;;;;;;;;;
2024/04/01 04:44:16;;;;;;;13.70;2.20;;;;;;;10.81;72.91;98466.52;126734;1305;114955;-63
2024/04/01 04:48:19;;;;;;;13.50;1.90;;;;;;;10.85;72.63;98450.84;124437;1276;114893;-65
2024/04/01 04:52:14;;;;;;;16.80;2.70;;;;;;;10.86;72.82;98440.59;127717;1283;114838;-64
2024/04/01 04:56:15;;;;;;;11.80;2.10;;;;;;;10.87;72.40;98438.50;126803;1307;114955;-64
2024/04/01 05:12:27;;;;;;;;;;;;;;;;;;;;;
2024/04/01 05:16:29;;;;;;;;;;;;;;;;;;;;;
2024/04/01 05:24:48;;;;;;;13.70;2.30;;;;;;;11.43;71.60;98436.98;125883;1296;638538;-64
2024/04/01 05:28:50;;;;;;;11.90;3.30;;;;;;;11.47;71.48;98420.61;128077;1281;128089;-63
2024/04/01 05:32:51;;;;;;;17.10;3.40;;;;;;;11.54;71.65;98438.91;127725;1284;114848;-64
2024/04/01 05:36:38;;;;;;;16.70;3.40;;;;;;;11.62;71.49;98447.74;122170;1298;5410678;-64
2024/04/01 05:40:39;;;;;;;18.20;3.80;;;;;;;11.68;71.16;98453.89;125229;1308;115251;-64
2024/04/01 05:49:14;;;;;;;14.40;2.60;;;;;;;11.85;71.33;98435.45;125721;1301;639534;-64
2024/04/01 05:53:19;;;;;;;15.40;2.50;;;;;;;11.96;71.00;98444.39;127158;1290;127914;-64
2024/04/01 05:57:20;;;;;;;11.60;2.20;;;;;;;12.15;70.76;98433.30;125810;1318;114892;-64
2024/04/01 06:01:21;;;;;;;12.90;2.00;;;;;;;12.37;70.79;98419.23;121336;1305;5420771;-64
2024/04/01 06:09:58;;;;;;;17.60;3.10;;;;;;;12.92;70.21;98396.16;126170;1308;637048;-65
2024/04/01 06:13:59;;;;;;;16.30;2.50;;;;;;;13.13;69.66;98352.45;128096;1282;128664;-65
2024/04/01 06:18:03;;;;;;;13.90;2.10;;;;;;;13.29;69.26;98342.41;127153;1309;114840;-64
2024/04/01 06:30:40;;;;;;;15.80;3.50;;;;;;;13.60;68.69;98397.20;126103;1298;635994;-64
2024/04/01 06:33:58;;;;;;;;;;;;;;;;;;;;;
2024/04/01 06:38:02;;;;;;;12.30;2.70;;;;;;;13.91;68.09;98380.09;128902;1291;115272;-64
2024/04/01 06:50:21;;;;;;;;;;;;;;;;;;;;;
2024/04/01 06:54:25;;;;;;;13.80;2.60;;;;;;;14.59;67.91;98410.11;128525;1295;128348;-63
2024/04/01 06:58:17;;;;;;;15.60;2.70;;;;;;;14.78;67.51;98400.01;126992;1284;114915;-63
2024/04/01 07:06:17;;;;;;;13.20;2.20;;;;;;;15.09;67.19;98421.09;125674;1316;114901;-64
2024/04/01 07:10:17;;;;;;;16.70;2.50;;;;;;;15.28;66.33;98426.27;125306;1323;115305;-64
2024/04/01 07:18:38;;;;;;;;;;;;;;;;;;;;;
2024/04/01 07:22:54;;;;;;;18.60;3.00;;;;;;;16.23;65.19;98467.91;127565;1302;128882;-64
2024/04/01 07:26:37;;;;;;;16.20;3.00;;;;;;;16.47;64.97;98472.43;127931;1299;114774;-64
2024/04/01 07:30:44;;;;;;;14.10;3.10;;;;;;;16.99;65.33;98463.68;123531;1286;5462669;-64
2024/04/01 07:34:34;;;;;;;15.40;2.80;;;;;;;17.80;64.23;98446.95;126265;1292;114815;-64
2024/04/01 07:38:35;;;;;;;19.50;2.80;;;;;;;18.29;62.49;98438.69;126472;1295;114897;-64
2024/04/01 07:42:42;;;;;;;13.40;3.00;;;;;;;18.63;61.61;98438.30;125212;1302;128560;-65
2024/04/01 07:50:51;;;;;;;21.60;3.70;;;;;;;19.43;60.13;98413.48;125701;1300;638738;-65
2024/04/01 07:54:54;;;;;;;16.50;2.80;;;;;;;19.69;59.11;98402.42;128270;1285;128644;-63
2024/04/01 07:58:56;;;;;;;13.60;2.20;;;;;;;19.93;58.53;98415.91;127542;1285;114847;-65
2024/04/01 08:02:32;;;;;;;;;;;;;;;;;;;;;
2024/04/01 08:06:28;;;;;;;;;;;;;;;;;;;;;
2024/04/01 08:10:12;;;;;;;;;;;;;;;;;;;;;
2024/04/01 08:18:38;;;;;;;18.90;2.90;;;;;;;20.65;55.02;98376.23;125846;1299;637660;-64
2024/04/01 08:22:41;;;;;;;14.90;2.70;;;;;;;20.63;54.87;98378.04;128737;1284;127798;-64
2024/04/01 08:30:48;;;;;;;15.90;3.00;;;;;;;21.32;54.72;98344.73;128189;1275;269690;-64
2024/04/01 08:34:33;;;;;;;15.70;2.00;;;;;;;21.45;52.47;98326.13;127992;1277;114917;-64
2024/04/01 08:38:36;;;;;;;19.10;3.00;;;;;;;21.43;52.63;98296.30;127666;1278;114974;-65
2024/04/01 08:46:43;;;;;;;17.30;3.30;;;;;;;21.16;51.95;98276.66;125753;1301;114946;-64
2024/04/01 08:50:47;;;;;;;20.80;3.10;;;;;;;21.29;51.83;98270.58;124683;1330;114941;-64
2024/04/01 08:54:59;;;;;;;20.60;2.90;;;;;;;21.35;50.93;98264.86;124748;1312;114942;-65
2024/04/01 09:03:22;;;;;;;19.50;3.20;;;;;;;21.72;51.20;98298.29;125821;1300;637844;-64
2024/04/01 09:11:17;;;;;;;23.40;4.00;;;;;;;21.97;50.01;98318.10;128545;1279;114839;-65
2024/04/01 09:14:50;;;;;;;23.40;4.00;;;;;;;22.08;49.43;98314.45;124726;1280;5375495;-66
2024/04/01 09:18:53;;;;;;;27.30;4.40;;;;;;;22.19;49.49;98304.56;128465;1296;114986;-65
2024/04/01 09:22:48;;;;;;;;;;;;;;;;;;;;;
2024/04/01 09:30:48;;;;;;;23.70;3.60;;;;;;;22.19;48.50;98308.84;126125;1299;129781;-64
2024/04/01 09:34:45;;;;;;;;;;;;;;;;;;;;;
2024/04/01 09:43:21;;;;;;;32.90;5.00;;;;;;;21.67;48.71;98278.85;126189;1305;638363;-65
2024/04/01 09:51:15;;;;;;;23.10;4.00;;;;;;;22.06;48.75;98259.39;127453;1287;114792;-65
2024/04/01 09:55:11;;;;;;;;;;;;;;;;;;;;;
2024/04/01 09:59:15;;;;;;;34.00;4.90;;;;;;;22.29;47.83;98235.92;126130;1318;114972;-65
2024/04/01 10:11:35;;;;;;;23.00;4.20;;;;;;;22.62;47.54;98232.80;125560;1305;115004;-66
2024/04/01 10:15:39;;;;;;;28.30;4.70;;;;;;;22.71;47.29;98211.98;125555;1305;115005;-65
2024/04/01 10:19:55;;;;;;;35.40;4.80;;;;;;;22.83;46.92;98201.80;124999;1319;114927;-64
2024/04/01 10:24:01;;;;;;;39.80;5.20;;;;;;;22.80;46.79;98196.73;125072;1308;115033;-65
2024/04/01 10:28:11;;;;;;;39.40;4.80;;;;;;;22.82;46.97;98189.66;125573;1312;128767;-64
2024/04/01 10:32:24;;;;;;;;;;;;;;;;;;;;;
2024/04/01 10:40:43;;;;;;;32.90;5.20;;;;;;;23.16;46.65;98191.16;127239;1305;114895;-65
2024/04/01 10:44:56;;;;;;;32.10;5.50;;;;;;;23.26;46.32;98171.52;126853;1290;114850;-65
2024/04/01 10:48:51;;;;;;;;;;;;;;;;;;;;;
2024/04/01 10:56:52;;;;;;;;;;;;;;;23.68;45.90;98194.05;126570;1292;114866;-64
2024/04/01 11:01:01;;;;;;;26.50;4.20;;;;;;;23.89;45.47;98198.92;126739;1286;114786;-65
2024/04/01 11:05:03;;;;;;;33.20;4.90;;;;;;;24.12;44.75;98194.15;126898;1293;114783;-65
2024/04/01 11:09:15;;;;;;;;;;;;;;;;;;;;;
2024/04/01 11:17:21;;;;;;;20.10;3.80;;;;;;;23.82;44.13;98160.78;126980;1302;114770;-64
2024/04/01 11:20:43;;;;;;;25.40;4.60;;;;;;;23.74;44.47;98154.58;126299;1305;114811;-64
2024/04/01 11:33:30;;;;;;;26.80;4.40;;;;;;;23.56;44.51;98145.63;126798;1295;115047;-64
2024/04/01 11:37:15;;;;;;;29.80;5.10;;;;;;;23.56;44.95;98147.85;126480;1294;114980;-64
2024/04/01 11:41:17;;;;;;;29.60;4.90;;;;;;;23.60;45.13;98152.66;126793;1295;115006;-64
2024/04/01 11:45:07;;;;;;;25.30;4.50;;;;;;;23.62;44.72;98149.90;126239;1312;114936;-64
2024/04/01 11:48:53;;;;;;;;;;;;;;;;;;;;;
2024/04/01 11:52:56;;;;;;;26.40;4.60;;;;;;;23.57;44.64;98125.94;126024;1318;114875;-65
2024/04/01 12:01:05;;;;;;;32.20;4.60;;;;;;;23.56;44.55;98108.88;126263;1316;115278;-66
2024/04/01 12:09:09;;;;;;;32.90;4.70;;;;;;;23.61;44.93;98108.64;125736;1299;127931;-65
2024/04/01 12:13:12;;;;;;;23.80;3.30;;;;;;;23.61;45.13;98099.35;125250;1307;114958;-64
2024/04/01 12:21:47;;;;;;;25.20;3.90;;;;;;;23.53;44.67;98076.80;126033;1299;639297;-65
2024/04/01 12:25:50;;;;;;;18.40;3.10;;;;;;;23.59;44.86;98068.79;127983;1284;127777;-65
2024/04/01 12:29:58;;;;;;;27.30;4.30;;;;;;;23.75;44.67;98071.12;127137;1287;115000;-65
2024/04/01 12:33:51;;;;;;;;;;;;;;;;;;;;;
2024/04/01 12:46:05;;;;;;;20.70;3.40;;;;;;;24.78;43.77;98067.37;127994;1285;119552;-65
2024/04/01 12:50:11;;;;;;;;;;;;;;;;;;;;;
2024/04/01 12:54:21;;;;;;;21.80;3.50;;;;;;;25.15;42.60;98081.20;121863;1304;5415197;-65
2024/04/01 12:58:11;;;;;;;25.10;3.40;;;;;;;25.32;42.05;98083.48;125583;1319;114911;-64
2024/04/01 13:02:11;;;;;;;22.20;3.60;;;;;;;25.42;41.20;98080.39;125460;1301;115264;-64
2024/04/01 13:10:20;;;;;;;24.70;3.70;;;;;;;25.68;41.44;98081.87;125700;1301;119463;-64
2024/04/01 13:18:25;;;;;;;19.20;2.90;;;;;;;25.81;40.90;98081.77;125772;1319;114956;-65
2024/04/01 13:26:35;;;;;;;24.70;3.10;;;;;;;25.85;40.61;98086.17;126346;1310;114982;-64
2024/04/01 13:30:40;;;;;;;27.60;4.10;;;;;;;25.90;40.63;98079.70;127326;1295;119055;-64
2024/04/01 13:34:29;;;;;;;19.60;3.00;;;;;;;25.93;40.69;98077.46;128736;1272;114813;-64
2024/04/01 13:38:32;;;;;;;29.20;4.10;;;;;;;25.96;40.52;98075.16;129258;1284;114743;-64
2024/04/01 13:42:33;;;;;;;23.30;3.40;;;;;;;25.95;40.19;98074.15;129405;1270;114919;-64
2024/04/01 13:46:44;;;;;;;24.30;3.90;;;;;;;25.93;40.37;98069.27;129538;1265;115071;-63
2024/04/01 13:50:50;;;;;;;21.70;3.70;;;;;;;25.89;40.29;98058.61;129510;1281;118905;-64
2024/04/01 13:58:56;;;;;;;27.70;3.90;;;;;;;25.69;40.45;98058.88;129538;1265;114928;-64
2024/04/01 14:02:57;;;;;;;26.80;3.70;;;;;;;25.54;40.26;98050.14;129744;1265;114783;-64
2024/04/01 14:07:09;;;;;;;;;;;;;;;;;;;;;
2024/04/01 14:19:21;;;;;;;20.00;3.80;;;;;;;24.85;40.17;98043.00;129544;1266;114887;-64
2024/04/01 14:23:22;;;;;;;;;;;;;;;;;;;;;
2024/04/01 14:27:28;;;;;;;20.40;2.60;;;;;;;24.62;40.41;98042.42;129345;1268;114928;-66
2024/04/01 14:30:57;;;;;;;32.90;4.40;;;;;;;24.47;40.47;98044.38;128649;1295;129012;-65
2024/04/01 14:35:02;;;;;;;25.00;4.40;;;;;;;24.34;40.55;98049.43;128331;1279;114901;-64
2024/04/01 14:39:06;;;;;;;25.80;4.10;;;;;;;24.20;40.65;98043.40;127787;1284;115749;-65
2024/04/01 14:42:40;;;;;;;;;;;;;;;;;;;;;
2024/04/01 14:46:43;;;;;;;25.10;3.80;;;;;;;23.89;40.92;98046.36;126418;1294;114911;-65
2024/04/01 14:50:42;;;;;;;;;;;;;;;;;;;;;
2024/04/01 14:54:27;;;;;;;26.60;4.00;;;;;;;23.59;41.18;98044.64;126176;1297;114912;-65
2024/04/01 14:58:29;;;;;;;34.20;5.50;;;;;;;23.44;41.32;98045.58;126324;1298;114988;-64
2024/04/01 15:07:03;;;;;;;31.90;4.50;;;;;;;23.10;41.75;98067.38;125721;1298;638382;-65
2024/04/01 15:11:06;;;;;;;20.90;3.70;;;;;;;22.90;41.96;98071.69;126983;1290;126922;-65
2024/04/01 15:19:07;;;;;;;;;;;;;;;;;;;;;
2024/04/01 15:27:23;;;;;;;29.50;5.30;;;;;;;22.44;43.29;98091.64;125866;1302;638664;-64
2024/04/01 15:35:16;;;;;;;28.30;5.90;;;;;;;22.22;43.95;98104.73;126986;1293;114798;-64
2024/04/01 15:39:15;;;;;;;;;;;;;;;;;;;;;
2024/04/01 15:51:50;;;;;;;;;;;;;;;;;;;;;
2024/04/01 15:55:31;;;;;;;;;;;;;;;;;;;;;
2024/04/01 15:59:33;;;;;;;;;;;;;;;;;;;;;
2024/04/01 16:03:35;;;;;;;;;;;;;;;;;;;;;
2024/04/01 16:15:56;;;;;;;32.10;6.80;;;;;;;21.14;47.00;98155.16;125552;1304;638580;-65
2024/04/01 16:20:02;;;;;;;26.60;6.20;;;;;;;21.03;47.15;98154.80;128346;1279;128838;-64
2024/04/01 16:24:04;;;;;;;;;;;;;;;;;;;;;
2024/04/01 16:28:19;;;;;;;29.20;6.80;;;;;;;20.88;47.62;98156.30;122665;1293;5396093;-64
2024/04/01 16:32:21;;;;;;;16.90;2.70;;;;;;;20.80;48.08;98202.19;126132;1299;114959;-63
2024/04/01 16:36:22;;;;;;;15.30;2.10;;;;;;;20.59;48.47;98225.02;124895;1314;114971;-64
2024/04/01 16:44:55;;;;;;;;;;;;;;;;;;;;;
2024/04/01 16:48:58;;;;;;;12.80;2.00;;;;;;;19.59;52.41;98344.02;127689;1285;129545;-65
2024/04/01 17:00:52;;;;;;;;;;;;;;;;;;;;;
2024/04/01 17:09:26;;;;;;;6.00;1.30;;;;;;;17.57;58.39;98366.15;126071;1298;638821;-65
2024/04/01 17:13:29;;;;;;;6.00;1.30;;;;;;;17.19;59.31;98378.73;128940;1273;127708;-66
2024/04/01 17:17:32;;;;;;;6.50;1.00;;;;;;;16.89;60.22;98400.48;127530;1283;114884;-66
2024/04/01 17:21:34;;;;;;;5.40;1.20;;;;;;;16.65;61.14;98407.38;122956;1288;5535246;-64
2024/04/01 17:25:17;;;;;;;;;;;;;;;;;;;;;
2024/04/01 17:29:03;;;;;;;;;;;;;;;;;;;;;
2024/04/01 17:33:04;;;;;;;;;;;;;;;;;;;;;
2024/04/01 17:41:37;;;;;;;3.60;1.20;;;;;;;15.81;64.33;98425.10;125678;1300;637424;-65
2024/04/01 17:45:39;;;;;;;4.30;1.70;;;;;;;15.65;65.07;98438.46;127805;1298;128938;-64
2024/04/01 17:49:32;;;;;;;5.50;1.40;;;;;;;15.52;65.60;98430.58;127763;1304;114982;-64
2024/04/01 17:57:30;;;;;;;;;;;;;;;;;;;;;
2024/04/01 18:01:33;;;;;;;4.10;1.60;;;;;;;15.12;67.22;98436.83;126018;1317;114976;-64
2024/04/01 18:05:17;;;;;;;9.30;2.30;;;;;;;15.02;67.59;98439.98;125065;1311;129880;-63
2024/04/01 18:13:53;;;;;;;4.50;1.90;;;;;;;14.92;68.99;98450.31;125848;1300;637446;-65
2024/04/01 18:17:43;;;;;;;;;;;;;;;;;;;;;
2024/04/01 18:21:29;;;;;;;4.80;2.70;;;;;;;14.80;69.77;98461.48;128680;1266;114922;-63
2024/04/01 18:24:48;;;;;;;6.40;2.00;;;;;;;14.75;70.17;98465.90;127172;1280;2827808;-65
2024/04/01 18:28:52;;;;;;;5.80;2.10;;;;;;;14.69;70.57;98472.20;129399;1268;114998;-64
2024/04/01 18:32:55;;;;;;;10.60;3.00;;;;;;;14.60;71.09;98474.70;128333;1280;114958;-66
2024/04/01 18:36:58;;;;;;;6.00;2.20;;;;;;;14.47;71.05;98467.82;127013;1289;129033;-67
2024/04/01 18:40:58;;;;;;;8.40;2.40;;;;;;;14.32;71.02;98473.91;126234;1295;115007;-64
2024/04/01 18:44:58;;;;;;;;;;;;;;;;;;;;;
2024/04/01 18:49:37;;;;;;;24.80;15.10;;;;;;;14.06;71.83;98489.27;125923;1301;638592;-65
2024/04/01 18:53:31;;;;;;;6.70;1.80;;;;;;;13.94;72.22;98477.13;126793;1289;128532;-64
2024/04/01 18:57:30;;;;;;;5.70;1.70;;;;;;;13.89;72.64;98474.48;126136;1287;114918;-63
2024/04/01 19:01:33;;;;;;;7.50;1.80;;;;;;;13.87;73.14;98487.29;123205;1285;5425433;-66
2024/04/01 19:05:35;;;;;;;4.60;1.80;;;;;;;13.85;73.64;98477.04;125696;1297;114959;-63
2024/04/01 19:14:30;;;;;;;7.00;2.90;;;;;;;13.86;74.17;98467.96;125652;1297;650410;-65
2024/04/01 19:18:31;;;;;;;5.90;2.20;;;;;;;13.85;74.43;98476.13;127225;1289;128847;-65
2024/04/01 19:26:38;;;;;;;5.60;2.30;;;;;;;13.82;75.04;98496.13;122138;1302;5600517;-64
2024/04/01 19:39:11;;;;;;;4.40;1.70;;;;;;;13.81;75.46;98516.30;126163;1305;636040;-64
2024/04/01 19:43:12;;;;;;;5.90;1.50;;;;;;;13.80;76.12;98537.45;127106;1296;127946;-64
2024/04/01 19:55:41;;;;;;;6.60;1.90;;;;;;;13.81;76.60;98506.84;125924;1300;636993;-65
2024/04/01 19:59:44;;;;;;;3.70;1.60;;;;;;;13.77;76.82;98511.33;128331;1278;127956;-70
2024/04/01 20:03:47;;;;;;;6.20;1.80;;;;;;;13.76;76.78;98513.95;128221;1299;115047;-70
2024/04/01 20:07:50;;;;;;;5.30;1.80;;;;;;;13.74;77.21;98520.89;122783;1292;5427123;-64
2024/04/01 20:19:56;;;;;;;4.80;2.40;;;;;;;13.69;77.49;98532.53;124710;1331;114925;-67
2024/04/01 20:23:56;;;;;;;;;;;;;;;;;;;;;
2024/04/01 20:36:29;;;;;;;6.00;1.50;;;;;;;13.63;77.64;98510.83;126405;1292;128051;-65
2024/04/01 20:40:33;;;;;;;5.10;1.70;;;;;;;13.60;77.77;98511.80;126418;1295;115437;-65
2024/04/01 20:57:10;;;;;;;4.00;1.20;;;;;;;13.51;77.68;98537.73;128671;1276;127795;-65
2024/04/01 21:01:18;;;;;;;4.50;1.60;;;;;;;13.49;77.68;98558.02;128536;1280;114879;-66
2024/04/01 21:09:24;;;;;;;3.70;1.00;;;;;;;13.43;77.86;98571.95;127915;1295;114866;-66
2024/04/01 21:13:29;;;;;;;1.90;1.30;;;;;;;13.39;77.59;98580.17;126900;1303;114788;-67
2024/04/01 21:21:31;;;;;;;4.90;0.70;;;;;;;13.33;77.89;98595.79;125888;1319;115000;-65
2024/04/01 21:25:32;;;;;;;2.60;1.10;;;;;;;13.30;78.10;98600.13;125166;1326;116555;-67
2024/04/01 21:29:34;;;;;;;4.40;1.30;;;;;;;13.28;78.22;98603.88;124373;1317;115105;-67
2024/04/01 21:38:10;;;;;;;2.00;0.90;;;;;;;13.25;78.26;98636.26;126164;1311;636229;-65
2024/04/01 21:50:17;;;;;;;2.80;1.20;;;;;;;13.14;78.65;98653.20;122429;1313;5443966;-64
2024/04/01 21:54:19;;;;;;;3.20;2.10;;;;;;;13.09;78.88;98660.95;125184;1320;115344;-64
2024/04/01 22:06:32;;;;;;;5.30;1.50;;;;;;;12.98;79.43;98653.31;125871;1301;636099;-65
2024/04/01 22:10:35;;;;;;;3.90;1.30;;;;;;;12.93;79.68;98635.98;127924;1284;129228;-64
2024/04/01 22:14:38;;;;;;;3.20;1.60;;;;;;;12.87;79.95;98621.79;127304;1290;114887;-64
2024/04/01 22:22:49;;;;;;;2.30;1.30;;;;;;;12.79;80.34;98616.17;125206;1309;115227;-64
2024/04/01 22:31:24;;;;;;;2.50;1.00;;;;;;;12.74;80.73;98621.33;126096;1299;638739;-63
2024/04/01 22:40:00;;;;;;;2.50;1.50;;;;;;;12.69;81.17;98615.11;126019;1309;638808;-64
2024/04/01 22:44:03;;;;;;;3.10;1.40;;;;;;;12.66;81.59;98614.25;126863;1286;128503;-64
2024/04/01 22:56:34;;;;;;;2.80;1.20;;;;;;;12.59;81.89;98608.19;126035;1296;638758;-62
2024/04/01 23:00:36;;;;;;;2.10;1.20;;;;;;;12.55;82.02;98623.58;127309;1300;129254;-64
2024/04/01 23:04:40;;;;;;;3.00;1.50;;;;;;;12.53;82.20;98629.69;126654;1311;114910;-64
2024/04/01 23:08:41;;;;;;;2.20;1.30;;;;;;;12.52;82.59;98638.91;121870;1319;5424282;-64
2024/04/01 23:17:17;;;;;;;7.70;3.40;;;;;;;12.53;82.54;98623.08;125843;1299;638344;-65
2024/04/01 23:21:19;;;;;;;5.20;3.40;;;;;;;12.48;82.87;98630.61;128812;1295;129727;-64
2024/04/01 23:25:21;;;;;;;4.20;2.20;;;;;;;12.47;83.20;98629.86;128111;1290;114953;-65
2024/04/01 23:33:25;;;;;;;4.40;2.20;;;;;;;12.45;83.62;98638.05;126508;1291;114945;-66
2024/04/01 23:37:29;;;;;;;4.00;3.60;;;;;;;12.44;83.73;98643.30;126075;1302;114886;-65
2024/04/01 23:41:30;;;;;;;5.10;3.20;;;;;;;12.41;83.72;98644.50;125379;1308;127587;-65
2024/04/01 23:50:05;;;;;;;4.60;2.70;;;;;;;12.37;83.80;98652.46;125738;1305;639457;-65
2024/04/01 23:54:07;;;;;;;4.30;2.30;;;;;;;12.34;83.79;98659.58;127552;1279;127992;-65
2024/04/01 23:58:09;;;;;;;4.20;2.10;;;;;;;12.33;84.02;98666.59;126258;1315;114994;-64
